createdAt,value
2023-04-15T00:00:06.357Z,97.35
2023-04-15T00:01:06.373Z,97.35
2023-04-15T00:02:06.433Z,97.39
2023-04-15T00:03:06.555Z,97.50
2023-04-15T00:04:06.506Z,97.39
2023-04-15T00:05:06.437Z,97.50
2023-04-15T00:06:06.451Z,97.60
2023-04-15T00:07:06.468Z,97.71
2023-04-15T00:08:06.516Z,97.91
2023-04-15T00:09:06.505Z,98.02
2023-04-15T00:10:06.525Z,98.02
2023-04-15T00:11:06.546Z,98.02
2023-04-15T00:12:06.572Z,98.02
2023-04-15T00:13:06.613Z,98.22
2023-04-15T00:14:06.621Z,98.33
2023-04-15T00:15:06.617Z,98.43
2023-04-15T00:16:06.626Z,98.43
2023-04-15T00:17:06.651Z,98.22
2023-04-15T00:18:06.686Z,98.22
2023-04-15T00:19:06.677Z,98.43
2023-04-15T00:20:06.696Z,98.54
2023-04-15T00:21:06.721Z,98.64
2023-04-15T00:22:06.729Z,98.54
2023-04-15T00:23:06.772Z,98.33
2023-04-15T00:24:06.766Z,98.22
2023-04-15T00:25:06.819Z,97.96
2023-04-15T00:26:06.792Z,98.17
2023-04-15T00:27:06.816Z,98.58
2023-04-15T00:28:06.850Z,99.00
2023-04-15T00:29:06.859Z,99.41
2023-04-15T00:30:06.879Z,99.68
2023-04-15T00:31:06.924Z,99.78
2023-04-15T00:32:06.900Z,99.57
2023-04-15T00:33:06.952Z,99.26
2023-04-15T00:34:06.930Z,98.95
2023-04-15T00:35:06.951Z,98.85
2023-04-15T00:36:06.964Z,98.85
2023-04-15T00:37:07.000Z,98.85
2023-04-15T00:38:07.059Z,98.85
2023-04-15T00:39:07.024Z,98.74
2023-04-15T00:40:07.047Z,98.74
2023-04-15T00:41:07.063Z,98.74
2023-04-15T00:42:07.078Z,98.74
2023-04-15T00:43:07.124Z,98.69
2023-04-15T00:44:07.104Z,98.79
2023-04-15T00:45:07.164Z,98.79
2023-04-15T00:46:07.192Z,98.90
2023-04-15T00:47:07.161Z,98.79
2023-04-15T00:48:07.283Z,98.69
2023-04-15T00:49:07.201Z,98.58
2023-04-15T00:50:07.220Z,98.52
2023-04-15T00:51:07.245Z,98.52
2023-04-15T00:52:07.262Z,98.63
2023-04-15T00:53:07.327Z,98.73
2023-04-15T00:54:07.299Z,98.73
2023-04-15T00:55:07.325Z,98.83
2023-04-15T00:56:07.335Z,98.83
2023-04-15T00:57:07.359Z,98.99
2023-04-15T00:58:07.409Z,98.99
2023-04-15T00:59:07.401Z,99.09
2023-04-15T01:00:07.413Z,99.66
2023-04-15T01:01:07.461Z,99.99
2023-04-15T01:02:07.592Z,99.99
2023-04-15T01:03:07.733Z,99.99
2023-04-15T01:04:07.548Z,99.99
2023-04-15T01:05:07.496Z,99.99
2023-04-15T01:06:07.516Z,99.99
2023-04-15T01:07:07.534Z,99.99
2023-04-15T01:08:07.567Z,99.93
2023-04-15T01:09:07.587Z,99.62
2023-04-15T01:10:07.596Z,99.31
2023-04-15T01:11:07.618Z,99.21
2023-04-15T01:12:07.633Z,99.21
2023-04-15T01:13:07.682Z,99.10
2023-04-15T01:14:07.671Z,99.04
2023-04-15T01:15:07.685Z,99.15
2023-04-15T01:16:07.752Z,99.35
2023-04-15T01:17:07.728Z,99.62
2023-04-15T01:18:07.771Z,99.41
2023-04-15T01:19:07.772Z,99.31
2023-04-15T01:20:07.787Z,98.79
2023-04-15T01:21:07.819Z,98.38
2023-04-15T01:22:07.813Z,98.27
2023-04-15T01:23:07.856Z,98.27
2023-04-15T01:24:07.845Z,98.27
2023-04-15T01:25:07.864Z,98.48
2023-04-15T01:26:07.879Z,98.38
2023-04-15T01:27:07.894Z,98.58
2023-04-15T01:28:07.920Z,98.58
2023-04-15T01:29:07.918Z,98.58
2023-04-15T01:30:07.928Z,98.58
2023-04-15T01:31:08.036Z,98.38
2023-04-15T01:32:07.969Z,98.17
2023-04-15T01:33:08.003Z,98.21
2023-04-15T01:34:07.998Z,98.42
2023-04-15T01:35:08.016Z,98.52
2023-04-15T01:36:08.034Z,98.52
2023-04-15T01:37:08.071Z,98.52
2023-04-15T01:38:08.095Z,98.63
2023-04-15T01:39:08.099Z,98.78
2023-04-15T01:40:08.107Z,98.99
2023-04-15T01:41:08.245Z,99.09
2023-04-15T01:42:08.149Z,99.30
2023-04-15T01:43:08.196Z,99.30
2023-04-15T01:44:08.182Z,99.30
2023-04-15T01:45:08.202Z,99.30
2023-04-15T01:46:08.236Z,99.40
2023-04-15T01:47:08.245Z,99.40
2023-04-15T01:48:08.297Z,99.51
2023-04-15T01:49:08.280Z,99.92
2023-04-15T01:50:08.295Z,99.99
2023-04-15T01:51:08.322Z,99.99
2023-04-15T01:52:08.327Z,99.99
2023-04-15T01:53:08.364Z,99.77
2023-04-15T01:54:08.370Z,99.66
2023-04-15T01:55:08.368Z,99.56
2023-04-15T01:56:08.385Z,99.46
2023-04-15T01:57:08.392Z,99.46
2023-04-15T01:58:08.435Z,99.46
2023-04-15T01:59:08.437Z,99.56
2023-04-15T02:00:08.467Z,99.66
2023-04-15T02:01:08.503Z,99.77
2023-04-15T02:02:08.540Z,99.77
2023-04-15T02:03:08.677Z,99.77
2023-04-15T02:04:08.584Z,99.77
2023-04-15T02:05:08.524Z,99.87
2023-04-15T02:06:08.549Z,99.87
2023-04-15T02:07:08.556Z,99.87
2023-04-15T02:08:08.609Z,99.87
2023-04-15T02:09:08.587Z,99.77
2023-04-15T02:10:08.613Z,99.87
2023-04-15T02:11:08.647Z,99.98
2023-04-15T02:12:08.642Z,99.98
2023-04-15T02:13:08.674Z,99.98
2023-04-15T02:14:08.680Z,99.87
2023-04-15T02:15:08.694Z,99.82
2023-04-15T02:16:08.752Z,99.82
2023-04-15T02:17:08.740Z,99.82
2023-04-15T02:18:08.796Z,99.82
2023-04-15T02:19:08.765Z,99.62
2023-04-15T02:20:08.807Z,99.52
2023-04-15T02:21:08.789Z,99.41
2023-04-15T02:22:08.802Z,99.31
2023-04-15T02:23:08.847Z,99.10
2023-04-15T02:24:08.829Z,99.10
2023-04-15T02:25:08.847Z,99.10
2023-04-15T02:26:08.862Z,99.00
2023-04-15T02:27:08.873Z,99.10
2023-04-15T02:28:08.920Z,99.00
2023-04-15T02:29:08.912Z,98.79
2023-04-15T02:30:08.931Z,98.69
2023-04-15T02:31:08.944Z,98.69
2023-04-15T02:32:09.050Z,98.69
2023-04-15T02:33:09.002Z,98.69
2023-04-15T02:34:09.006Z,98.48
2023-04-15T02:35:09.091Z,98.48
2023-04-15T02:36:09.036Z,98.27
2023-04-15T02:37:09.051Z,98.27
2023-04-15T02:38:09.092Z,98.27
2023-04-15T02:39:09.090Z,98.38
2023-04-15T02:40:09.125Z,98.38
2023-04-15T02:41:09.118Z,98.38
2023-04-15T02:42:09.152Z,98.48
2023-04-15T02:43:09.194Z,98.58
2023-04-15T02:44:11.353Z,98.79
2023-04-15T02:45:09.198Z,98.58
2023-04-15T02:46:09.266Z,98.58
2023-04-15T02:47:09.230Z,98.58
2023-04-15T02:48:09.283Z,98.79
2023-04-15T02:49:09.264Z,98.69
2023-04-15T02:50:09.613Z,98.38
2023-04-15T02:51:09.302Z,98.17
2023-04-15T02:52:09.335Z,98.07
2023-04-15T02:53:09.381Z,98.27
2023-04-15T02:54:09.358Z,98.38
2023-04-15T02:55:09.374Z,98.48
2023-04-15T02:56:09.384Z,98.38
2023-04-15T02:57:09.401Z,98.58
2023-04-15T02:58:09.453Z,98.69
2023-04-15T02:59:09.436Z,98.69
2023-04-15T03:00:09.457Z,98.69
2023-04-15T03:01:09.599Z,98.79
2023-04-15T03:02:09.533Z,98.79
2023-04-15T03:03:09.598Z,98.74
2023-04-15T03:04:09.620Z,98.69
2023-04-15T03:05:09.551Z,98.43
2023-04-15T03:06:09.589Z,98.22
2023-04-15T03:07:09.589Z,98.02
2023-04-15T03:08:09.690Z,97.96
2023-04-15T03:09:09.628Z,98.07
2023-04-15T03:10:09.641Z,97.60
2023-04-15T03:11:09.656Z,97.71
2023-04-15T03:12:09.675Z,97.86
2023-04-15T03:13:09.708Z,97.96
2023-04-15T03:14:09.699Z,97.81
2023-04-15T03:15:09.735Z,97.75
2023-04-15T03:16:09.773Z,97.65
2023-04-15T03:17:09.736Z,97.65
2023-04-15T03:18:09.777Z,97.65
2023-04-15T03:19:09.777Z,97.86
2023-04-15T03:20:09.822Z,98.07
2023-04-15T03:21:09.815Z,98.27
2023-04-15T03:22:09.833Z,98.38
2023-04-15T03:23:09.889Z,98.38
2023-04-15T03:24:09.858Z,98.27
2023-04-15T03:25:09.914Z,98.00
2023-04-15T03:26:09.933Z,98.00
2023-04-15T03:27:09.910Z,98.11
2023-04-15T03:28:09.953Z,98.21
2023-04-15T03:29:09.946Z,98.42
2023-04-15T03:30:09.974Z,98.42
2023-04-15T03:31:10.041Z,98.52
2023-04-15T03:32:09.988Z,98.63
2023-04-15T03:33:10.020Z,98.83
2023-04-15T03:34:10.041Z,99.04
2023-04-15T03:35:10.038Z,99.25
2023-04-15T03:36:10.065Z,99.25
2023-04-15T03:37:10.079Z,98.94
2023-04-15T03:38:10.136Z,98.73
2023-04-15T03:39:10.129Z,98.63
2023-04-15T03:40:10.133Z,98.52
2023-04-15T03:41:10.145Z,98.32
2023-04-15T03:42:10.161Z,98.42
2023-04-15T03:43:10.203Z,98.21
2023-04-15T03:44:10.199Z,97.90
2023-04-15T03:45:10.208Z,98.00
2023-04-15T03:46:10.262Z,98.32
2023-04-15T03:47:10.240Z,98.00
2023-04-15T03:48:16.445Z,98.21
2023-04-15T03:49:10.264Z,98.21
2023-04-15T03:50:10.287Z,98.21
2023-04-15T03:51:10.305Z,98.21
2023-04-15T03:52:10.323Z,98.32
2023-04-15T03:53:10.352Z,98.52
2023-04-15T03:54:10.356Z,98.42
2023-04-15T03:55:10.365Z,98.52
2023-04-15T03:56:10.382Z,98.42
2023-04-15T03:57:10.388Z,98.32
2023-04-15T03:58:10.444Z,98.11
2023-04-15T03:59:10.434Z,98.00
2023-04-15T04:00:10.468Z,98.00
2023-04-15T04:01:10.469Z,98.00
2023-04-15T04:02:10.594Z,98.21
2023-04-15T04:03:10.744Z,98.32
2023-04-15T04:04:10.589Z,98.11
2023-04-15T04:05:10.531Z,97.90
2023-04-15T04:06:10.539Z,97.59
2023-04-15T04:07:10.566Z,97.59
2023-04-15T04:08:10.601Z,97.80
2023-04-15T04:09:10.605Z,98.00
2023-04-15T04:10:10.615Z,97.80
2023-04-15T04:11:10.637Z,97.59
2023-04-15T04:12:10.651Z,97.80
2023-04-15T04:13:10.706Z,97.85
2023-04-15T04:14:10.689Z,97.74
2023-04-15T04:15:10.708Z,97.95
2023-04-15T04:16:10.817Z,98.16
2023-04-15T04:17:10.796Z,98.26
2023-04-15T04:18:10.775Z,98.36
2023-04-15T04:19:11.314Z,98.16
2023-04-15T04:20:10.798Z,98.26
2023-04-15T04:21:10.816Z,98.36
2023-04-15T04:22:10.874Z,98.36
2023-04-15T04:23:10.863Z,98.26
2023-04-15T04:24:10.860Z,98.36
2023-04-15T04:25:10.872Z,98.16
2023-04-15T04:26:10.885Z,98.26
2023-04-15T04:27:10.909Z,98.30
2023-04-15T04:28:10.941Z,98.36
2023-04-15T04:29:10.928Z,98.51
2023-04-15T04:30:10.940Z,98.47
2023-04-15T04:31:10.962Z,98.68
2023-04-15T04:32:11.092Z,98.78
2023-04-15T04:33:11.013Z,98.72
2023-04-15T04:34:11.008Z,98.72
2023-04-15T04:35:11.022Z,98.82
2023-04-15T04:36:11.027Z,98.82
2023-04-15T04:37:11.046Z,98.61
2023-04-15T04:38:11.078Z,98.68
2023-04-15T04:39:11.082Z,98.78
2023-04-15T04:40:11.089Z,98.57
2023-04-15T04:41:11.114Z,98.36
2023-04-15T04:42:11.124Z,98.36
2023-04-15T04:43:11.168Z,98.36
2023-04-15T04:44:11.162Z,98.26
2023-04-15T04:45:11.186Z,98.26
2023-04-15T04:46:11.270Z,98.36
2023-04-15T04:47:11.230Z,98.41
2023-04-15T04:48:11.263Z,98.30
2023-04-15T04:49:11.259Z,98.30
2023-04-15T04:50:11.272Z,98.30
2023-04-15T04:51:11.300Z,98.47
2023-04-15T04:52:11.310Z,98.57
2023-04-15T04:53:11.348Z,98.51
2023-04-15T04:54:11.347Z,98.51
2023-04-15T04:55:11.366Z,98.51
2023-04-15T04:56:11.379Z,98.51
2023-04-15T04:57:11.410Z,98.57
2023-04-15T04:58:11.437Z,98.57
2023-04-15T04:59:11.433Z,98.57
2023-04-15T05:00:11.449Z,98.47
2023-04-15T05:01:11.487Z,98.47
2023-04-15T05:02:11.531Z,98.36
2023-04-15T05:03:11.766Z,98.26
2023-04-15T05:04:11.664Z,98.05
2023-04-15T05:05:11.530Z,98.05
2023-04-15T05:06:11.547Z,98.05
2023-04-15T05:07:11.562Z,97.95
2023-04-15T05:08:11.581Z,97.74
2023-04-15T05:09:11.602Z,97.53
2023-04-15T05:10:11.627Z,97.59
2023-04-15T05:11:11.632Z,97.49
2023-04-15T05:12:11.652Z,97.38
2023-04-15T05:13:11.669Z,97.28
2023-04-15T05:14:11.682Z,96.97
2023-04-15T05:15:11.709Z,96.86
2023-04-15T05:16:11.774Z,96.76
2023-04-15T05:17:11.734Z,96.14
2023-04-15T05:18:11.749Z,95.89
2023-04-15T05:19:11.760Z,95.26
2023-04-15T05:20:11.775Z,95.37
2023-04-15T05:21:11.794Z,95.99
2023-04-15T05:22:11.809Z,96.05
2023-04-15T05:23:11.831Z,95.74
2023-04-15T05:24:11.863Z,95.43
2023-04-15T05:25:11.865Z,94.91
2023-04-15T05:26:11.874Z,94.29
2023-04-15T05:27:11.894Z,93.93
2023-04-15T05:28:11.915Z,93.62
2023-04-15T05:29:11.937Z,94.35
2023-04-15T05:30:13.386Z,94.14
2023-04-15T05:31:11.988Z,93.52
2023-04-15T05:32:11.961Z,93.31
2023-04-15T05:33:11.990Z,93.48
2023-04-15T05:34:12.004Z,93.06
2023-04-15T05:35:12.024Z,92.24
2023-04-15T05:36:12.058Z,92.34
2023-04-15T05:37:12.057Z,92.85
2023-04-15T05:38:12.071Z,92.55
2023-04-15T05:39:12.098Z,92.34
2023-04-15T05:40:12.109Z,92.34
2023-04-15T05:41:12.130Z,92.24
2023-04-15T05:42:12.140Z,91.41
2023-04-15T05:43:12.159Z,91.82
2023-04-15T05:44:12.171Z,92.65
2023-04-15T05:45:12.190Z,91.82
2023-04-15T05:46:12.213Z,92.65
2023-04-15T05:47:12.223Z,92.65
2023-04-15T05:48:12.253Z,92.24
2023-04-15T05:49:12.273Z,91.82
2023-04-15T05:50:12.272Z,91.82
2023-04-15T05:51:12.292Z,92.03
2023-04-15T05:52:12.312Z,91.82
2023-04-15T05:53:12.350Z,91.41
2023-04-15T05:54:12.324Z,91.41
2023-04-15T05:55:12.345Z,90.99
2023-04-15T05:56:12.358Z,90.84
2023-04-15T05:57:12.380Z,91.05
2023-04-15T05:58:12.436Z,91.26
2023-04-15T05:59:12.409Z,90.95
2023-04-15T06:00:12.421Z,90.53
2023-04-15T06:01:12.458Z,90.84
2023-04-15T06:02:12.515Z,90.74
2023-04-15T06:03:12.722Z,90.53
2023-04-15T06:04:12.661Z,90.33
2023-04-15T06:05:12.522Z,90.12
2023-04-15T06:06:12.527Z,89.19
2023-04-15T06:07:12.562Z,89.61
2023-04-15T06:08:12.596Z,90.23
2023-04-15T06:09:12.592Z,91.05
2023-04-15T06:10:12.603Z,90.84
2023-04-15T06:11:12.632Z,90.12
2023-04-15T06:12:12.644Z,89.40
2023-04-15T06:13:12.686Z,89.92
2023-04-15T06:14:12.693Z,89.61
2023-04-15T06:15:12.716Z,90.02
2023-04-15T06:16:12.783Z,90.12
2023-04-15T06:17:12.746Z,89.92
2023-04-15T06:18:12.777Z,89.71
2023-04-15T06:19:12.783Z,89.71
2023-04-15T06:20:12.800Z,89.92
2023-04-15T06:21:12.826Z,89.61
2023-04-15T06:22:12.843Z,89.77
2023-04-15T06:23:12.897Z,89.77
2023-04-15T06:24:12.881Z,89.25
2023-04-15T06:25:12.905Z,88.01
2023-04-15T06:26:12.916Z,88.22
2023-04-15T06:27:12.941Z,88.12
2023-04-15T06:28:12.977Z,88.01
2023-04-15T06:29:12.972Z,88.22
2023-04-15T06:30:12.983Z,88.01
2023-04-15T06:31:13.023Z,88.32
2023-04-15T06:32:13.026Z,88.43
2023-04-15T06:33:13.047Z,87.60
2023-04-15T06:34:13.036Z,87.29
2023-04-15T06:35:13.063Z,88.32
2023-04-15T06:36:13.071Z,87.29
2023-04-15T06:37:13.086Z,88.12
2023-04-15T06:38:13.122Z,88.43
2023-04-15T06:39:13.126Z,88.43
2023-04-15T06:40:13.146Z,88.12
2023-04-15T06:41:13.160Z,87.18
2023-04-15T06:42:13.169Z,87.91
2023-04-15T06:43:13.217Z,86.77
2023-04-15T06:44:13.209Z,86.88
2023-04-15T06:45:13.223Z,87.60
2023-04-15T06:46:13.252Z,88.01
2023-04-15T06:47:13.280Z,87.70
2023-04-15T06:48:13.305Z,87.70
2023-04-15T06:49:13.297Z,88.22
2023-04-15T06:50:13.313Z,87.97
2023-04-15T06:51:13.332Z,87.66
2023-04-15T06:52:13.338Z,87.66
2023-04-15T06:53:13.384Z,87.46
2023-04-15T06:54:13.388Z,87.46
2023-04-15T06:55:13.395Z,86.83
2023-04-15T06:56:13.408Z,87.56
2023-04-15T06:57:13.444Z,87.04
2023-04-15T06:58:13.458Z,86.73
2023-04-15T06:59:13.459Z,86.94
2023-04-15T07:00:13.469Z,87.04
2023-04-15T07:01:13.548Z,86.42
2023-04-15T07:02:13.544Z,86.18
2023-04-15T07:03:13.571Z,85.76
2023-04-15T07:04:13.558Z,85.35
2023-04-15T07:05:13.568Z,85.66
2023-04-15T07:06:13.577Z,86.18
2023-04-15T07:07:13.594Z,85.97
2023-04-15T07:08:13.628Z,85.86
2023-04-15T07:09:13.625Z,85.62
2023-04-15T07:10:13.633Z,84.69
2023-04-15T07:11:13.665Z,84.79
2023-04-15T07:12:13.674Z,85.83
2023-04-15T07:13:13.718Z,85.31
2023-04-15T07:14:13.712Z,86.34
2023-04-15T07:15:13.737Z,85.00
2023-04-15T07:16:13.839Z,85.10
2023-04-15T07:17:13.907Z,84.07
2023-04-15T07:18:13.815Z,84.13
2023-04-15T07:19:13.812Z,83.62
2023-04-15T07:20:13.828Z,83.51
2023-04-15T07:21:13.844Z,84.13
2023-04-15T07:22:13.850Z,83.62
2023-04-15T07:23:13.892Z,82.79
2023-04-15T07:24:13.896Z,83.93
2023-04-15T07:25:13.913Z,82.48
2023-04-15T07:26:13.935Z,82.79
2023-04-15T07:27:13.942Z,83.37
2023-04-15T07:28:13.979Z,82.86
2023-04-15T07:29:13.986Z,81.72
2023-04-15T07:30:14.000Z,82.55
2023-04-15T07:31:14.032Z,81.62
2023-04-15T07:32:14.024Z,81.82
2023-04-15T07:33:14.057Z,81.62
2023-04-15T07:34:14.059Z,82.55
2023-04-15T07:35:14.086Z,82.75
2023-04-15T07:36:14.124Z,82.55
2023-04-15T07:37:14.115Z,82.20
2023-04-15T07:38:14.160Z,81.58
2023-04-15T07:39:14.167Z,81.48
2023-04-15T07:40:14.181Z,81.17
2023-04-15T07:41:14.246Z,81.68
2023-04-15T07:42:14.214Z,80.41
2023-04-15T07:43:14.257Z,80.30
2023-04-15T07:44:14.244Z,81.34
2023-04-15T07:45:14.262Z,80.72
2023-04-15T07:46:14.305Z,80.82
2023-04-15T07:47:14.294Z,80.47
2023-04-15T07:48:14.335Z,79.55
2023-04-15T07:49:14.409Z,79.55
2023-04-15T07:50:14.347Z,80.06
2023-04-15T07:51:14.378Z,79.14
2023-04-15T07:52:14.385Z,79.03
2023-04-15T07:53:14.425Z,79.61
2023-04-15T07:54:14.413Z,81.16
2023-04-15T07:55:14.432Z,79.72
2023-04-15T07:56:14.437Z,79.30
2023-04-15T07:57:14.452Z,79.20
2023-04-15T07:58:14.495Z,79.27
2023-04-15T07:59:14.495Z,80.19
2023-04-15T08:00:14.521Z,80.09
2023-04-15T08:01:14.529Z,79.88
2023-04-15T08:02:14.688Z,79.37
2023-04-15T08:03:14.728Z,78.03
2023-04-15T08:04:14.708Z,77.31
2023-04-15T08:05:14.643Z,79.27
2023-04-15T08:06:14.616Z,78.75
2023-04-15T08:07:14.637Z,77.89
2023-04-15T08:08:14.671Z,77.79
2023-04-15T08:09:14.674Z,78.30
2023-04-15T08:10:14.703Z,78.30
2023-04-15T08:11:14.714Z,77.28
2023-04-15T08:12:14.717Z,77.34
2023-04-15T08:13:14.775Z,76.83
2023-04-15T08:14:14.757Z,77.03
2023-04-15T08:15:14.776Z,76.93
2023-04-15T08:16:14.845Z,76.93
2023-04-15T08:17:14.828Z,77.24
2023-04-15T08:18:14.856Z,77.45
2023-04-15T08:19:14.860Z,76.59
2023-04-15T08:20:14.871Z,74.05
2023-04-15T08:21:14.903Z,75.49
2023-04-15T08:22:18.105Z,76.01
2023-04-15T08:23:14.935Z,75.56
2023-04-15T08:24:14.947Z,73.91
2023-04-15T08:25:14.965Z,74.53
2023-04-15T08:26:14.982Z,75.87
2023-04-15T08:27:15.012Z,77.00
2023-04-15T08:28:15.040Z,76.59
2023-04-15T08:29:15.044Z,76.55
2023-04-15T08:30:15.068Z,76.76
2023-04-15T08:31:15.101Z,75.70
2023-04-15T08:32:15.135Z,75.49
2023-04-15T08:33:15.132Z,75.59
2023-04-15T08:34:15.123Z,74.05
2023-04-15T08:35:15.124Z,74.67
2023-04-15T08:36:15.160Z,73.95
2023-04-15T08:37:15.176Z,73.13
2023-04-15T08:38:15.212Z,73.44
2023-04-15T08:39:15.202Z,74.63
2023-04-15T08:40:15.245Z,74.94
2023-04-15T08:41:15.241Z,74.02
2023-04-15T08:42:15.275Z,72.78
2023-04-15T08:43:15.300Z,72.68
2023-04-15T08:44:15.316Z,73.40
2023-04-15T08:45:15.333Z,75.25
2023-04-15T08:46:15.393Z,72.78
2023-04-15T08:47:15.362Z,73.40
2023-04-15T08:48:15.412Z,73.71
2023-04-15T08:49:15.406Z,73.71
2023-04-15T08:50:15.423Z,72.68
2023-04-15T08:51:15.437Z,73.50
2023-04-15T08:52:15.457Z,75.04
2023-04-15T08:53:15.503Z,74.19
2023-04-15T08:54:15.488Z,73.78
2023-04-15T08:55:15.499Z,71.93
2023-04-15T08:56:15.538Z,72.96
2023-04-15T08:57:15.561Z,72.85
2023-04-15T08:58:15.585Z,72.10
2023-04-15T08:59:15.586Z,71.59
2023-04-15T09:00:15.595Z,73.64
2023-04-15T09:01:15.637Z,73.13
2023-04-15T09:02:15.696Z,71.04
2023-04-15T09:03:15.724Z,71.76
2023-04-15T09:04:15.748Z,73.30
2023-04-15T09:05:15.663Z,71.56
2023-04-15T09:06:15.686Z,72.38
2023-04-15T09:07:15.697Z,72.99
2023-04-15T09:08:15.853Z,73.71
2023-04-15T09:09:15.740Z,73.36
2023-04-15T09:10:15.757Z,71.52
2023-04-15T09:11:15.759Z,71.22
2023-04-15T09:12:15.777Z,71.73
2023-04-15T09:13:15.879Z,71.01
2023-04-15T09:14:15.812Z,71.93
2023-04-15T09:15:15.820Z,71.52
2023-04-15T09:16:15.874Z,70.81
2023-04-15T09:17:15.854Z,70.98
2023-04-15T09:18:15.907Z,71.28
2023-04-15T09:19:15.885Z,72.72
2023-04-15T09:20:15.923Z,74.26
2023-04-15T09:21:15.935Z,72.31
2023-04-15T09:22:15.950Z,72.82
2023-04-15T09:23:15.988Z,72.52
2023-04-15T09:24:15.980Z,71.49
2023-04-15T09:25:15.987Z,70.87
2023-04-15T09:26:16.012Z,70.16
2023-04-15T09:27:16.019Z,70.87
2023-04-15T09:28:16.053Z,71.18
2023-04-15T09:29:16.044Z,69.13
2023-04-15T09:30:16.076Z,70.16
2023-04-15T09:31:16.102Z,71.15
2023-04-15T09:32:16.136Z,70.53
2023-04-15T09:33:16.122Z,71.04
2023-04-15T09:34:16.121Z,69.71
2023-04-15T09:35:16.131Z,71.12
2023-04-15T09:36:16.148Z,70.91
2023-04-15T09:37:29.086Z,70.23
2023-04-15T09:38:16.216Z,67.05
2023-04-15T09:39:16.200Z,66.95
2023-04-15T09:40:16.323Z,65.72
2023-04-15T09:41:16.227Z,68.08
2023-04-15T09:42:16.269Z,66.13
2023-04-15T09:43:16.269Z,67.57
2023-04-15T09:44:16.302Z,67.46
2023-04-15T09:45:16.284Z,66.85
2023-04-15T09:46:16.356Z,67.84
2023-04-15T09:47:16.302Z,70.20
2023-04-15T09:48:16.344Z,69.68
2023-04-15T09:49:16.349Z,68.01
2023-04-15T09:50:16.401Z,68.32
2023-04-15T09:51:16.368Z,67.19
2023-04-15T09:52:16.388Z,66.58
2023-04-15T09:53:16.422Z,66.78
2023-04-15T09:54:16.423Z,66.78
2023-04-15T09:55:16.427Z,68.63
2023-04-15T09:56:16.455Z,67.27
2023-04-15T09:57:16.462Z,64.71
2023-04-15T09:58:16.509Z,64.81
2023-04-15T09:59:16.500Z,65.84
2023-04-15T10:00:16.521Z,66.42
2023-04-15T10:01:16.575Z,63.96
2023-04-15T10:02:16.625Z,62.77
2023-04-15T10:03:16.657Z,63.79
2023-04-15T10:04:16.741Z,64.40
2023-04-15T10:05:16.585Z,64.07
2023-04-15T10:06:16.621Z,64.78
2023-04-15T10:07:16.619Z,65.06
2023-04-15T10:08:16.655Z,61.90
2023-04-15T10:09:16.667Z,63.43
2023-04-15T10:10:16.681Z,64.55
2023-04-15T10:11:16.671Z,61.79
2023-04-15T10:12:16.699Z,61.90
2023-04-15T10:13:16.723Z,61.49
2023-04-15T10:14:16.727Z,61.08
2023-04-15T10:15:16.749Z,59.85
2023-04-15T10:16:16.800Z,58.52
2023-04-15T10:17:16.765Z,62.30
2023-04-15T10:18:16.809Z,60.16
2023-04-15T10:19:16.805Z,61.69
2023-04-15T10:20:16.827Z,60.77
2023-04-15T10:21:16.831Z,61.76
2023-04-15T10:22:16.856Z,59.75
2023-04-15T10:23:16.878Z,60.97
2023-04-15T10:24:16.879Z,60.57
2023-04-15T10:25:16.895Z,59.95
2023-04-15T10:26:16.913Z,59.64
2023-04-15T10:27:16.920Z,59.75
2023-04-15T10:28:16.969Z,58.83
2023-04-15T10:29:16.960Z,60.44
2023-04-15T10:30:17.007Z,59.11
2023-04-15T10:31:17.073Z,59.31
2023-04-15T10:32:17.001Z,59.72
2023-04-15T10:33:17.034Z,59.39
2023-04-15T10:34:17.032Z,60.10
2023-04-15T10:35:17.049Z,60.00
2023-04-15T10:36:17.066Z,58.78
2023-04-15T10:37:17.068Z,59.80
2023-04-15T10:38:17.108Z,60.71
2023-04-15T10:39:17.101Z,60.51
2023-04-15T10:40:17.123Z,60.10
2023-04-15T10:41:17.956Z,58.64
2023-04-15T10:42:17.190Z,58.54
2023-04-15T10:43:17.180Z,56.81
2023-04-15T10:44:17.184Z,57.83
2023-04-15T10:45:17.191Z,57.83
2023-04-15T10:46:17.260Z,57.83
2023-04-15T10:47:17.220Z,56.43
2023-04-15T10:48:17.301Z,57.07
2023-04-15T10:49:17.354Z,58.29
2023-04-15T10:50:17.275Z,58.80
2023-04-15T10:51:17.286Z,60.03
2023-04-15T10:52:17.307Z,59.11
2023-04-15T10:53:17.338Z,56.89
2023-04-15T10:54:17.335Z,55.49
2023-04-15T10:55:17.342Z,57.12
2023-04-15T10:56:17.355Z,55.79
2023-04-15T10:57:17.366Z,54.67
2023-04-15T10:58:17.405Z,53.88
2023-04-15T10:59:17.394Z,54.08
2023-04-15T11:00:17.418Z,49.96
2023-04-15T11:01:17.432Z,51.70
2023-04-15T11:02:17.532Z,52.01
2023-04-15T11:03:17.561Z,50.76
2023-04-15T11:04:17.535Z,50.76
2023-04-15T11:05:17.487Z,50.66
2023-04-15T11:06:17.510Z,51.78
2023-04-15T11:07:17.512Z,52.47
2023-04-15T11:08:17.548Z,52.37
2023-04-15T11:09:17.539Z,50.53
2023-04-15T11:10:17.587Z,46.86
2023-04-15T11:11:17.564Z,47.37
2023-04-15T11:12:17.585Z,47.67
2023-04-15T11:13:17.619Z,49.71
2023-04-15T11:14:17.619Z,50.02
2023-04-15T11:15:17.642Z,49.62
2023-04-15T11:16:17.689Z,48.51
2023-04-15T11:17:17.649Z,49.74
2023-04-15T11:18:17.697Z,49.71
2023-04-15T11:19:17.691Z,50.23
2023-04-15T11:20:17.714Z,48.21
2023-04-15T11:21:17.728Z,49.92
2023-04-15T11:22:17.742Z,48.49
2023-04-15T11:23:17.771Z,51.15
2023-04-15T11:24:17.769Z,50.45
2023-04-15T11:25:17.784Z,50.17
2023-04-15T11:26:17.788Z,51.50
2023-04-15T11:27:17.811Z,51.19
2023-04-15T11:28:17.846Z,52.52
2023-04-15T11:29:17.849Z,51.29
2023-04-15T11:30:17.853Z,52.93
2023-04-15T11:31:18.356Z,53.52
2023-04-15T11:32:18.162Z,51.81
2023-04-15T11:33:17.920Z,51.91
2023-04-15T11:34:17.911Z,52.01
2023-04-15T11:35:17.928Z,50.48
2023-04-15T11:36:17.941Z,52.52
2023-04-15T11:37:17.948Z,52.22
2023-04-15T11:38:17.992Z,51.50
2023-04-15T11:39:17.972Z,50.48
2023-04-15T11:40:17.992Z,48.94
2023-04-15T11:41:17.996Z,48.94
2023-04-15T11:42:18.028Z,48.74
2023-04-15T11:43:18.052Z,51.09
2023-04-15T11:44:18.053Z,51.91
2023-04-15T11:45:18.057Z,50.25
2023-04-15T11:46:18.249Z,49.55
2023-04-15T11:47:18.160Z,49.68
2023-04-15T11:48:18.139Z,50.30
2023-04-15T11:49:18.131Z,52.16
2023-04-15T11:50:18.154Z,52.26
2023-04-15T11:51:18.161Z,52.98
2023-04-15T11:52:18.182Z,54.72
2023-04-15T11:53:18.201Z,52.37
2023-04-15T11:54:18.200Z,53.69
2023-04-15T11:55:18.217Z,53.90
2023-04-15T11:56:18.224Z,55.10
2023-04-15T11:57:18.241Z,55.71
2023-04-15T11:58:18.286Z,52.95
2023-04-15T11:59:18.285Z,53.54
2023-04-15T12:00:18.304Z,53.75
2023-04-15T12:01:18.552Z,53.34
2023-04-15T12:02:18.463Z,53.36
2023-04-15T12:03:18.565Z,53.98
2023-04-15T12:04:19.543Z,54.39
2023-04-15T12:05:18.448Z,55.89
2023-04-15T12:06:18.388Z,55.58
2023-04-15T12:07:18.395Z,56.20
2023-04-15T12:08:18.447Z,55.71
2023-04-15T12:09:18.424Z,55.62
2023-04-15T12:10:18.446Z,56.12
2023-04-15T12:11:18.453Z,54.80
2023-04-15T12:12:18.479Z,55.43
2023-04-15T12:13:18.509Z,54.61
2023-04-15T12:14:18.507Z,56.18
2023-04-15T12:15:18.520Z,55.36
2023-04-15T12:16:18.564Z,57.20
2023-04-15T12:17:18.573Z,56.48
2023-04-15T12:18:18.622Z,55.87
2023-04-15T12:19:18.586Z,56.28
2023-04-15T12:20:18.593Z,56.99
2023-04-15T12:21:18.608Z,56.48
2023-04-15T12:22:18.629Z,57.20
2023-04-15T12:23:18.646Z,57.61
2023-04-15T12:24:18.645Z,57.20
2023-04-15T12:25:18.667Z,58.04
2023-04-15T12:26:18.685Z,58.35
2023-04-15T12:27:18.685Z,59.27
2023-04-15T12:28:18.750Z,58.58
2023-04-15T12:29:18.723Z,59.50
2023-04-15T12:30:18.744Z,60.63
2023-04-15T12:31:18.775Z,60.05
2023-04-15T12:32:18.790Z,61.45
2023-04-15T12:33:18.803Z,61.35
2023-04-15T12:34:18.795Z,60.97
2023-04-15T12:35:18.819Z,61.25
2023-04-15T12:36:18.839Z,62.07
2023-04-15T12:37:18.870Z,61.66
2023-04-15T12:38:18.880Z,61.55
2023-04-15T12:39:18.874Z,60.81
2023-04-15T12:40:18.883Z,59.58
2023-04-15T12:41:18.906Z,59.71
2023-04-15T12:42:19.150Z,60.84
2023-04-15T12:43:18.950Z,59.78
2023-04-15T12:44:18.947Z,61.11
2023-04-15T12:45:18.958Z,60.10
2023-04-15T12:46:19.008Z,60.10
2023-04-15T12:47:19.046Z,56.30
2023-04-15T12:48:19.011Z,55.38
2023-04-15T12:49:19.011Z,57.02
2023-04-15T12:50:19.028Z,56.20
2023-04-15T12:51:19.043Z,55.69
2023-04-15T12:52:19.047Z,58.56